Time;durP1;ratioP1;P1;durP2;ratioP2;P2;SDS_P1;SDS_P2;PMS_P1;PMS_P2;Temp;Humidity;BMP_temperature;BMP_pressure;BME280_temperature;BME280_humidity;BME280_pressure;Samples;Min_cycle;Max_cycle;Signal;HPM_P1;HPM_P2
2022/06/02 00:00:24;;;;;;;9.75;4.20;;;;;;;21.43;57.38;94811.72;4160939;28;20544;-56
2022/06/02 00:03:05;;;;;;;6.40;3.97;;;;;;;21.36;57.30;94808.28;4161125;28;20118;-58
2022/06/02 00:05:13;;;;;;;7.18;4.03;;;;;;;21.35;57.51;94806.66;4171800;28;20057;-55
2022/06/02 00:07:23;;;;;;;9.63;4.53;;;;;;;21.36;57.56;94805.63;4176641;28;20076;-54
2022/06/02 00:09:25;;;;;;;7.10;3.97;;;;;;;21.33;57.55;94800.75;4164217;28;20114;-56
2022/06/02 00:11:31;;;;;;;8.93;4.37;;;;;;;21.35;57.68;94804.00;4168067;28;20560;-58
2022/06/02 00:13:55;;;;;;;8.27;4.18;;;;;;;21.38;57.21;94808.88;4171565;28;20362;-56
2022/06/02 00:16:01;;;;;;;10.90;4.43;;;;;;;21.36;57.34;94809.13;4163686;28;20057;-56
2022/06/02 00:18:14;;;;;;;6.72;4.15;;;;;;;21.32;57.72;94801.78;4166485;28;20167;-56
2022/06/02 00:20:24;;;;;;;6.13;3.97;;;;;;;21.35;57.80;94806.66;4164532;28;20068;-56
2022/06/02 00:22:47;;;;;;;9.27;4.63;;;;;;;21.40;57.59;94809.47;4164466;28;20090;-55
2022/06/02 00:25:00;;;;;;;7.43;4.15;;;;;;;21.42;57.73;94810.09;4174438;28;20361;-59
2022/06/02 00:27:07;;;;;;;6.60;4.03;;;;;;;21.40;58.43;94804.97;4175400;28;20083;-55
2022/06/02 00:29:23;;;;;;;9.10;4.65;;;;;;;21.38;58.41;94803.53;4165679;28;20045;-57
2022/06/02 00:31:47;;;;;;;5.90;4.28;;;;;;;21.37;58.74;94807.25;4159312;28;20049;-53
2022/06/02 00:33:57;;;;;;;7.60;4.53;;;;;;;21.36;58.91;94810.94;4164069;28;20049;-55
2022/06/02 00:36:03;;;;;;;8.50;4.35;;;;;;;21.34;58.81;94813.00;4161024;28;20473;-52
2022/06/02 00:38:29;;;;;;;9.82;4.32;;;;;;;21.33;58.69;94809.53;4160751;28;20536;-55
2022/06/02 00:40:33;;;;;;;7.43;4.55;;;;;;;21.31;58.98;94803.63;4160251;28;20466;-56
2022/06/02 00:42:49;;;;;;;6.57;4.18;;;;;;;21.30;59.13;94810.00;4160671;28;20418;-55
2022/06/02 00:45:05;;;;;;;8.13;4.35;;;;;;;21.32;59.17;94809.78;4164382;28;20580;-56
2022/06/02 00:47:41;;;;;;;9.15;4.53;;;;;;;21.32;58.88;94805.25;4171015;28;20045;-54
2022/06/02 00:50:04;;;;;;;7.32;4.22;;;;;;;21.30;58.93;94803.88;4169483;28;20061;-54
2022/06/02 00:52:12;;;;;;;11.27;4.68;;;;;;;21.30;58.96;94804.66;4173164;28;20327;-55
2022/06/02 00:57:30;;;;;;;10.25;4.25;;;;;;;21.22;59.48;94802.31;4175096;28;20552;-56
2022/06/02 00:59:43;;;;;;;12.23;4.50;;;;;;;21.13;59.50;94803.66;4156549;28;20641;-57
2022/06/02 01:01:45;;;;;;;9.23;4.15;;;;;;;21.02;59.50;94810.53;4165870;28;20056;-56
2022/06/02 01:03:48;;;;;;;6.53;4.30;;;;;;;20.48;60.85;94815.50;4168358;28;20045;-54
2022/06/02 01:06:23;;;;;;;7.45;4.53;;;;;;;20.15;61.83;94808.56;4159776;28;20076;-56
2022/06/02 01:08:45;;;;;;;6.50;3.95;;;;;;;19.78;62.48;94821.69;4159842;28;20187;-57
2022/06/02 01:11:18;;;;;;;7.15;3.92;;;;;;;19.63;62.66;94808.66;4171339;28;20057;-56
2022/06/02 01:13:26;;;;;;;11.00;4.05;;;;;;;19.68;62.30;94812.53;4175595;28;20493;-56
2022/06/02 01:15:34;;;;;;;7.60;4.22;;;;;;;19.69;62.17;94814.16;4172121;28;20049;-56
2022/06/02 01:17:50;;;;;;;7.10;4.18;;;;;;;19.63;61.71;94807.84;4160505;28;20502;-57
2022/06/02 01:19:54;;;;;;;10.30;3.65;;;;;;;19.40;62.12;94813.66;4167459;28;20049;-55
2022/06/02 01:22:30;;;;;;;10.88;3.92;;;;;;;19.11;63.06;94809.72;4174368;28;20049;-54
2022/06/02 01:24:55;;;;;;;8.20;4.18;;;;;;;19.01;63.77;94810.97;4174026;28;20048;-56
2022/06/02 01:27:10;;;;;;;7.93;3.78;;;;;;;18.93;63.61;94803.22;4159238;28;20137;-56
2022/06/02 01:29:30;;;;;;;8.18;3.85;;;;;;;18.98;63.86;94810.56;4160349;28;20049;-56
2022/06/02 01:31:54;;;;;;;7.95;3.85;;;;;;;19.12;63.53;94806.84;4161351;28;20045;-55
2022/06/02 01:34:24;;;;;;;7.38;3.25;;;;;;;19.26;62.70;94812.91;4160850;28;20064;-56
2022/06/02 01:36:33;;;;;;;6.50;3.80;;;;;;;19.28;62.35;94805.56;4160166;28;20629;-55
2022/06/02 01:38:57;;;;;;;10.05;3.95;;;;;;;19.05;63.02;94814.00;4159269;28;20329;-56
2022/06/02 01:41:13;;;;;;;5.68;3.53;;;;;;;19.03;63.24;94816.06;4164474;28;20049;-55
2022/06/02 01:43:23;;;;;;;5.40;4.03;;;;;;;19.12;63.18;94821.94;4169551;28;20409;-59
2022/06/02 01:46:02;;;;;;;6.53;3.72;;;;;;;19.26;62.82;94812.91;4158472;28;20085;-53
2022/06/02 01:48:10;;;;;;;8.88;4.10;;;;;;;19.42;62.37;94809.81;4160146;28;20085;-55
2022/06/02 01:50:46;;;;;;;6.85;3.83;;;;;;;19.52;61.91;94809.34;4162399;28;20045;-56
2022/06/02 01:52:57;;;;;;;7.30;3.95;;;;;;;19.65;61.79;94811.91;4157548;28;20470;-54
2022/06/02 01:55:17;;;;;;;7.13;4.13;;;;;;;19.73;61.57;94810.91;4170144;28;20049;-53
2022/06/02 01:57:34;;;;;;;10.90;4.45;;;;;;;19.83;61.35;94813.06;4165769;28;20130;-55
2022/06/02 02:00:03;;;;;;;9.75;4.10;;;;;;;19.88;61.24;94810.59;4157111;28;20096;-57
2022/06/02 02:02:26;;;;;;;9.52;4.13;;;;;;;19.96;61.16;94801.53;4159715;28;20559;-56
2022/06/02 02:04:49;;;;;;;9.52;4.28;;;;;;;19.98;61.60;94802.16;4158815;28;20054;-55
2022/06/02 02:07:05;;;;;;;7.43;4.30;;;;;;;20.01;61.46;94799.06;4164243;28;20053;-55
2022/06/02 02:09:19;;;;;;;8.45;4.28;;;;;;;20.03;61.38;94802.34;4166440;28;20045;-55
2022/06/02 02:11:41;;;;;;;6.75;4.25;;;;;;;20.03;61.53;94799.69;4171199;28;20481;-56
2022/06/02 02:13:45;;;;;;;5.68;3.78;;;;;;;20.00;61.57;94805.41;4157754;28;20041;-56
2022/06/02 02:15:56;;;;;;;12.95;4.53;;;;;;;20.00;61.60;94805.41;4166884;28;20049;-55
2022/06/02 02:18:22;;;;;;;9.63;4.70;;;;;;;20.00;61.50;94797.44;4160434;28;20132;-54
2022/06/02 02:20:45;;;;;;;5.65;3.92;;;;;;;20.01;61.67;94797.22;4166701;28;20457;-56
2022/06/02 02:22:57;;;;;;;9.15;4.32;;;;;;;19.93;61.53;94796.66;4167278;28;20298;-55
2022/06/02 02:25:02;;;;;;;13.38;5.25;;;;;;;19.48;62.73;94807.31;4163499;28;20046;-57
2022/06/02 02:27:15;;;;;;;7.72;4.30;;;;;;;19.01;63.99;94802.16;4175209;28;20322;-55
2022/06/02 02:29:43;;;;;;;9.77;4.68;;;;;;;18.88;64.51;94794.25;4166507;28;20057;-54
2022/06/02 02:32:00;;;;;;;7.88;4.10;;;;;;;18.74;65.04;94798.75;4159952;28;20652;-53
2022/06/02 02:34:31;;;;;;;10.75;4.47;;;;;;;18.45;65.70;94803.44;4161866;28;20129;-55
2022/06/02 02:36:37;;;;;;;6.10;4.10;;;;;;;18.15;66.80;94801.22;4173692;28;20134;-55
2022/06/02 02:38:59;;;;;;;10.80;4.60;;;;;;;17.95;67.39;94803.03;4159156;28;20123;-56
2022/06/02 02:41:04;;;;;;;10.25;5.15;;;;;;;18.14;67.28;94810.19;4159095;28;20037;-55
2022/06/02 02:43:12;;;;;;;7.60;5.30;;;;;;;18.36;66.64;94804.69;4163771;28;20087;-59
2022/06/02 02:46:11;;;;;;;5.55;3.90;;;;;;;18.58;65.92;94795.50;4174259;28;20056;-56
2022/06/02 02:48:29;;;;;;;6.13;4.20;;;;;;;18.81;65.12;94805.69;4172130;28;20048;-57
2022/06/02 02:50:42;;;;;;;10.98;4.95;;;;;;;18.70;64.70;94808.94;4148864;28;20436;-56
2022/06/02 02:52:57;;;;;;;13.35;4.90;;;;;;;18.44;65.76;94812.44;4155842;28;20135;-56
2022/06/02 02:55:29;;;;;;;15.02;5.07;;;;;;;18.35;66.48;94805.72;4155602;28;20119;-53
2022/06/02 02:57:41;;;;;;;11.43;5.55;;;;;;;18.20;67.15;94808.56;4151488;28;20085;-59
2022/06/02 03:00:03;;;;;;;9.73;5.28;;;;;;;18.08;67.86;94807.53;4151864;28;20060;-56
2022/06/02 03:02:29;;;;;;;11.45;5.03;;;;;;;17.85;68.76;94816.66;4165161;28;20199;-55
2022/06/02 03:05:28;;;;;;;8.63;5.50;;;;;;;17.80;69.40;94819.09;4156286;28;20660;-56
2022/06/02 03:07:31;;;;;;;9.80;5.47;;;;;;;17.92;69.10;94816.72;4168047;28;20061;-53
2022/06/02 03:09:53;;;;;;;9.13;4.70;;;;;;;17.99;69.14;94820.97;4171125;28;20059;-58
2022/06/02 03:12:04;;;;;;;11.93;5.30;;;;;;;18.00;69.06;94824.44;4167937;28;20080;-56
2022/06/02 03:14:15;;;;;;;11.93;5.93;;;;;;;18.13;68.61;94819.19;4172574;28;20111;-56
2022/06/02 03:16:17;;;;;;;14.35;5.13;;;;;;;18.31;68.37;94829.19;4170878;28;20139;-58
2022/06/02 03:18:46;;;;;;;11.73;5.30;;;;;;;18.44;67.69;94830.22;4155910;28;20115;-54
2022/06/02 03:21:04;;;;;;;9.98;5.38;;;;;;;18.57;67.45;94819.59;4158086;28;20077;-57
2022/06/02 03:23:47;;;;;;;10.02;5.80;;;;;;;18.74;66.77;94825.28;4157770;28;20065;-57
2022/06/02 03:26:10;;;;;;;11.50;5.40;;;;;;;18.92;65.96;94827.31;4168012;28;20060;-55
2022/06/02 03:28:42;;;;;;;10.65;5.97;;;;;;;19.04;65.54;94823.00;4160270;28;20057;-52
2022/06/02 03:31:21;;;;;;;13.10;5.07;;;;;;;19.16;65.00;94823.97;4165011;28;20041;-56
2022/06/02 03:33:32;;;;;;;8.63;4.88;;;;;;;19.29;64.48;94824.97;4161838;28;20060;-56
2022/06/02 03:36:00;;;;;;;9.32;5.38;;;;;;;19.39;64.08;94828.00;4173637;28;20053;-55
2022/06/02 03:38:14;;;;;;;14.30;5.57;;;;;;;19.45;63.98;94819.19;4159658;28;20081;-53
2022/06/02 03:40:34;;;;;;;7.90;4.95;;;;;;;19.51;63.65;94823.66;4176671;28;20045;-56
2022/06/02 03:42:52;;;;;;;8.50;5.18;;;;;;;19.59;63.52;94826.03;4172360;28;20505;-52
2022/06/02 03:45:02;;;;;;;8.68;5.20;;;;;;;19.62;63.36;94822.97;4168969;28;20053;-58
2022/06/02 03:47:24;;;;;;;12.98;5.45;;;;;;;19.65;63.09;94827.88;4174368;28;20080;-54
2022/06/02 03:49:53;;;;;;;9.80;5.00;;;;;;;19.66;63.12;94828.69;4170818;28;20196;-55
2022/06/02 03:52:09;;;;;;;9.93;5.03;;;;;;;19.73;62.95;94826.03;4166249;28;20053;-56
2022/06/02 03:54:18;;;;;;;9.43;4.47;;;;;;;19.77;62.91;94821.94;4163977;28;20103;-54
2022/06/02 03:56:44;;;;;;;7.13;4.75;;;;;;;19.85;62.92;94819.00;4163455;28;20383;-56
2022/06/02 03:59:11;;;;;;;9.55;4.90;;;;;;;19.93;62.67;94815.28;4171145;28;20048;-58
2022/06/02 04:01:18;;;;;;;6.43;4.75;;;;;;;20.07;62.45;94813.34;4160525;28;20064;-56
2022/06/02 04:03:48;;;;;;;8.90;5.10;;;;;;;20.19;61.90;94809.78;4166445;28;20060;-56
2022/06/02 04:06:13;;;;;;;9.02;5.03;;;;;;;20.35;61.44;94808.44;4175685;28;20394;-56
2022/06/02 04:08:30;;;;;;;10.57;4.85;;;;;;;20.45;61.23;94795.44;4166546;28;20049;-56
2022/06/02 04:10:49;;;;;;;11.82;5.30;;;;;;;20.58;60.80;94807.84;4164882;28;20046;-55
2022/06/02 04:13:39;;;;;;;10.82;5.50;;;;;;;20.66;60.50;94798.78;4161131;28;20104;-56
2022/06/02 04:15:58;;;;;;;14.43;5.53;;;;;;;20.72;60.54;94805.09;4168266;28;20079;-55
2022/06/02 04:18:22;;;;;;;13.40;5.63;;;;;;;20.74;60.36;94801.16;4171602;28;20095;-56
2022/06/02 04:20:47;;;;;;;15.65;7.00;;;;;;;20.72;60.52;94797.09;4166538;28;20049;-56
2022/06/02 04:23:08;;;;;;;14.93;6.68;;;;;;;20.66;60.11;94804.91;4165343;28;20202;-60
2022/06/02 04:25:47;;;;;;;7.85;5.55;;;;;;;20.61;60.13;94807.44;4162838;28;20264;-54
2022/06/02 04:28:11;;;;;;;8.15;5.75;;;;;;;20.57;60.58;94821.38;4174789;28;20037;-55
2022/06/02 04:30:17;;;;;;;;;;;;;;;20.57;60.50;94821.38;4171270;28;20053;-53
2022/06/02 04:32:30;;;;;;;8.65;5.45;;;;;;;20.59;61.04;94820.13;4176025;28;19920;-56
2022/06/02 04:34:52;;;;;;;5.95;5.22;;;;;;;20.64;61.44;94825.59;4163669;28;20060;-54
2022/06/02 04:37:02;;;;;;;11.65;5.65;;;;;;;20.79;61.06;94824.47;4158956;28;20124;-54
2022/06/02 04:39:11;;;;;;;9.00;5.63;;;;;;;20.86;60.57;94826.03;4167347;28;20052;-55
2022/06/02 04:41:43;;;;;;;11.43;5.88;;;;;;;20.98;60.23;94825.31;4171137;28;20575;-55
2022/06/02 04:44:03;;;;;;;8.98;6.00;;;;;;;21.10;59.67;94834.22;4164457;28;20529;-56
2022/06/02 04:46:42;;;;;;;8.98;5.53;;;;;;;21.21;59.42;94833.47;4162658;28;20106;-55
2022/06/02 04:49:08;;;;;;;9.60;6.38;;;;;;;21.31;58.84;94837.44;4166030;28;20072;-54
2022/06/02 04:51:19;;;;;;;9.18;6.68;;;;;;;21.26;58.79;94838.13;4165817;28;20042;-54
2022/06/02 04:53:34;;;;;;;13.68;6.35;;;;;;;21.28;58.83;94833.38;4162837;28;20048;-55
2022/06/02 04:56:00;;;;;;;9.15;6.35;;;;;;;21.36;58.41;94840.25;4170152;28;20080;-57
2022/06/02 04:58:12;;;;;;;11.63;6.05;;;;;;;21.32;58.73;94844.44;4163429;28;20116;-57
2022/06/02 05:00:51;;;;;;;9.70;6.18;;;;;;;21.32;58.46;94836.44;4173225;28;20052;-55
2022/06/02 05:03:17;;;;;;;11.13;6.78;;;;;;;21.31;58.68;94832.13;4161151;28;20071;-55
2022/06/02 05:05:31;;;;;;;10.18;6.25;;;;;;;21.35;58.94;94838.63;4167725;28;20206;-54
2022/06/02 05:07:47;;;;;;;11.95;6.05;;;;;;;21.31;58.88;94838.25;4146892;28;20062;-55
2022/06/02 05:09:52;;;;;;;11.15;5.85;;;;;;;21.25;58.75;94842.66;4160110;28;20057;-53
2022/06/02 05:12:42;;;;;;;10.55;6.40;;;;;;;21.16;59.33;94843.16;4165779;28;20119;-57
2022/06/02 05:14:59;;;;;;;14.18;6.50;;;;;;;21.10;59.06;94831.53;4157512;28;20493;-54
2022/06/02 05:17:23;;;;;;;9.80;5.63;;;;;;;21.19;59.25;94826.72;4164155;28;20083;-56
2022/06/02 05:19:46;;;;;;;10.85;6.25;;;;;;;21.31;59.27;94826.78;4169117;28;20655;-56
2022/06/02 05:22:12;;;;;;;14.40;6.30;;;;;;;21.26;58.85;94833.59;4160135;28;20103;-54
2022/06/02 05:24:51;;;;;;;9.63;5.88;;;;;;;21.29;58.59;94829.66;4159662;28;20061;-55
2022/06/02 05:26:58;;;;;;;10.68;6.65;;;;;;;20.79;60.40;94829.78;4158403;28;20049;-54
2022/06/02 05:29:12;;;;;;;12.20;6.53;;;;;;;20.35;62.25;94829.72;4159780;28;20057;-55
2022/06/02 05:31:38;;;;;;;12.15;6.90;;;;;;;20.33;62.66;94829.13;4158478;28;20053;-54
2022/06/02 05:33:52;;;;;;;12.02;7.40;;;;;;;20.24;62.84;94825.09;4163508;28;20049;-55
2022/06/02 05:36:00;;;;;;;;;;;;;;;20.12;63.72;94835.63;4168656;28;20058;-55
2022/06/02 05:38:18;;;;;;;16.73;7.57;;;;;;;20.19;63.73;94835.56;4159953;28;19925;-52
2022/06/02 05:40:24;;;;;;;12.82;7.15;;;;;;;20.29;63.71;94840.41;4172091;28;20118;-56
2022/06/02 05:42:44;;;;;;;14.10;7.43;;;;;;;20.58;63.19;94837.13;4173107;28;20606;-53
2022/06/02 05:45:06;;;;;;;16.73;6.50;;;;;;;20.90;61.93;94829.06;4173282;28;20052;-54
2022/06/02 05:47:27;;;;;;;11.65;6.40;;;;;;;21.14;61.24;94831.91;4163496;28;20058;-53
2022/06/02 05:49:41;;;;;;;9.25;6.82;;;;;;;20.96;60.73;94835.38;4162910;28;20110;-51
2022/06/02 05:52:02;;;;;;;11.27;6.80;;;;;;;21.01;61.18;94838.97;4168656;28;20115;-51
2022/06/02 05:54:09;;;;;;;11.90;6.95;;;;;;;21.24;60.94;94834.88;4163189;28;20111;-55
2022/06/02 05:56:35;;;;;;;16.00;7.47;;;;;;;21.32;60.68;94831.91;4161568;28;20053;-53
2022/06/02 05:59:07;;;;;;;16.92;7.47;;;;;;;21.59;60.47;94835.09;4171342;28;20530;-58
2022/06/02 06:01:39;;;;;;;15.80;8.07;;;;;;;21.79;60.16;94834.84;4156919;28;20128;-55
2022/06/02 06:03:47;;;;;;;44.00;9.15;;;;;;;21.98;59.52;94837.47;4155672;28;20159;-55
2022/06/02 06:06:14;;;;;;;97.25;12.73;;;;;;;22.10;58.28;94840.97;4159608;28;20433;-57
2022/06/02 06:08:35;;;;;;;14.88;8.20;;;;;;;22.03;57.96;94841.09;4161313;28;20056;-54
2022/06/02 06:11:10;;;;;;;18.70;7.22;;;;;;;22.13;57.83;94834.38;4159369;28;20438;-56
2022/06/02 06:13:30;;;;;;;14.90;7.55;;;;;;;22.17;57.90;94832.88;4162120;28;20053;-56
2022/06/02 06:16:04;;;;;;;13.90;6.95;;;;;;;22.26;57.52;94835.03;4164178;28;20053;-54
2022/06/02 06:18:13;;;;;;;11.73;6.63;;;;;;;22.46;57.07;94832.06;4157555;28;20115;-54
2022/06/02 06:20:42;;;;;;;16.00;6.70;;;;;;;22.57;55.87;94834.97;4171785;28;20536;-57
2022/06/02 06:22:51;;;;;;;13.02;6.90;;;;;;;22.53;56.51;94836.47;4164534;28;20198;-55
2022/06/02 06:25:03;;;;;;;10.63;7.53;;;;;;;22.37;57.54;94841.44;4158570;28;20135;-58
2022/06/02 06:27:18;;;;;;;13.73;7.28;;;;;;;22.33;57.48;94840.28;4175554;28;20053;-55
2022/06/02 06:29:22;;;;;;;13.38;7.35;;;;;;;22.41;57.55;94839.94;4164718;28;20599;-52
2022/06/02 06:32:03;;;;;;;9.32;7.15;;;;;;;22.16;57.33;94841.94;4157853;28;20045;-53
2022/06/02 06:34:16;;;;;;;11.15;7.03;;;;;;;22.09;57.11;94842.00;4164820;28;20512;-52
2022/06/02 06:36:43;;;;;;;13.07;8.15;;;;;;;21.75;58.35;94836.34;4173755;28;20198;-51
2022/06/02 06:39:00;;;;;;;14.38;8.15;;;;;;;21.74;58.69;94834.69;4171210;28;20053;-51
2022/06/02 06:41:13;;;;;;;14.20;7.88;;;;;;;21.80;58.57;94823.13;4162568;28;20071;-50
2022/06/02 06:43:33;;;;;;;11.93;7.03;;;;;;;21.82;58.51;94833.56;4162944;28;20101;-51
2022/06/02 06:45:36;;;;;;;9.30;6.68;;;;;;;22.04;59.20;94833.88;4171395;28;20058;-51
2022/06/02 06:47:42;;;;;;;13.60;7.45;;;;;;;22.16;57.70;94831.28;4162641;28;20085;-49
2022/06/02 06:50:02;;;;;;;12.48;7.38;;;;;;;22.04;57.92;94832.03;4170199;28;20170;-53
2022/06/02 06:52:32;;;;;;;13.45;7.47;;;;;;;22.21;58.23;94826.06;4161505;28;20103;-51
2022/06/02 06:55:01;;;;;;;16.55;6.90;;;;;;;22.57;57.86;94830.44;4158626;28;20137;-51
2022/06/02 06:57:08;;;;;;;9.48;6.20;;;;;;;22.84;56.69;94833.50;4161372;28;20053;-53
2022/06/02 06:59:26;;;;;;;10.27;6.07;;;;;;;23.12;56.20;94836.50;4171169;28;20056;-56
2022/06/02 07:01:39;;;;;;;13.00;6.25;;;;;;;23.37;55.64;94828.25;4157972;28;20517;-55
2022/06/02 07:03:47;;;;;;;;;;;;;;;23.55;54.93;94824.59;4170121;28;20056;-56
2022/06/02 07:05:52;;;;;;;11.65;7.10;;;;;;;23.71;54.32;94829.19;4161848;28;20115;-55
2022/06/02 07:08:06;;;;;;;10.32;6.68;;;;;;;23.84;53.83;94830.81;4176098;28;20057;-53
2022/06/02 07:10:13;;;;;;;;;;;;;;;23.94;53.40;94831.00;4164898;28;20103;-56
2022/06/02 07:14:50;;;;;;;9.40;6.07;;;;;;;23.94;52.76;94831.00;4172005;28;20148;-56
2022/06/02 07:16:55;;;;;;;12.57;7.00;;;;;;;23.76;52.29;94828.50;4176939;28;20488;-56
2022/06/02 07:19:28;;;;;;;9.75;6.88;;;;;;;23.55;53.49;94830.75;4167442;28;20049;-56
2022/06/02 07:21:41;;;;;;;10.00;5.90;;;;;;;23.61;54.09;94834.34;4172750;28;20487;-56
2022/06/02 07:24:04;;;;;;;17.60;7.20;;;;;;;23.52;52.77;94836.56;4170019;28;20465;-56
2022/06/02 07:26:15;;;;;;;14.18;6.53;;;;;;;23.50;52.67;94838.66;4173219;28;20282;-59
2022/06/02 07:28:44;;;;;;;10.95;6.50;;;;;;;23.67;53.04;94833.41;4162824;28;20160;-54
2022/06/02 07:31:00;;;;;;;8.55;5.55;;;;;;;23.97;52.53;94835.06;4160221;28;20291;-55
2022/06/02 07:33:17;;;;;;;15.57;6.68;;;;;;;24.21;51.88;94838.44;4173752;28;20049;-55
2022/06/02 07:35:47;;;;;;;23.65;9.70;;;;;;;24.40;51.14;94831.00;4164806;28;20053;-54
2022/06/02 07:37:51;;;;;;;8.98;5.50;;;;;;;24.56;50.67;94829.41;4164383;28;20045;-57
2022/06/02 07:40:11;;;;;;;9.75;5.65;;;;;;;24.39;49.67;94830.16;4165136;28;20053;-54
2022/06/02 07:42:22;;;;;;;11.40;5.65;;;;;;;24.33;50.53;94839.19;4175701;28;20053;-55
2022/06/02 07:44:38;;;;;;;10.82;5.47;;;;;;;24.35;50.20;94831.72;4159550;28;20108;-57
2022/06/02 07:47:03;;;;;;;11.73;5.85;;;;;;;24.62;49.75;94836.47;4170360;28;20057;-57
2022/06/02 07:49:11;;;;;;;14.38;5.60;;;;;;;24.65;49.54;94826.09;4174289;28;20058;-56
2022/06/02 07:51:31;;;;;;;13.20;7.45;;;;;;;24.42;50.38;94829.69;4164915;28;20118;-54
2022/06/02 07:53:40;;;;;;;13.93;5.93;;;;;;;24.19;49.47;94835.19;4170989;28;20060;-55
2022/06/02 07:55:54;;;;;;;13.18;5.90;;;;;;;23.99;50.73;94831.09;4165900;28;20266;-56
2022/06/02 07:58:29;;;;;;;8.73;5.53;;;;;;;24.24;50.24;94827.22;4175793;28;20056;-55
2022/06/02 08:00:40;;;;;;;11.00;5.88;;;;;;;24.60;49.67;94826.00;4180264;28;20049;-55
2022/06/02 08:03:08;;;;;;;11.73;5.20;;;;;;;24.78;48.53;94822.28;4162991;28;20081;-54
2022/06/02 08:05:31;;;;;;;11.13;4.88;;;;;;;24.91;48.60;94838.00;4174622;28;20061;-54
2022/06/02 08:07:33;;;;;;;15.52;6.45;;;;;;;25.02;47.93;94838.16;4166595;28;20620;-56
2022/06/02 08:09:46;;;;;;;13.90;5.57;;;;;;;25.24;48.55;94831.00;4176453;28;20152;-59
2022/06/02 08:12:25;;;;;;;8.65;5.18;;;;;;;25.49;47.62;94830.53;4167609;28;20496;-58
2022/06/02 08:14:48;;;;;;;8.65;4.18;;;;;;;25.70;46.33;94822.72;4173826;28;20056;-57
2022/06/02 08:17:20;;;;;;;15.30;4.00;;;;;;;25.88;45.06;94829.63;4177592;28;20044;-58
2022/06/02 08:19:35;;;;;;;13.85;6.63;;;;;;;26.04;44.57;94820.69;4170126;28;20514;-54
2022/06/02 08:21:43;;;;;;;10.77;4.30;;;;;;;26.18;44.96;94828.34;4176962;28;20049;-55
2022/06/02 08:24:17;;;;;;;7.28;4.32;;;;;;;26.30;43.34;94826.31;4167380;28;20057;-57
2022/06/02 08:26:42;;;;;;;10.00;3.78;;;;;;;26.40;43.12;94818.38;4162878;28;20049;-58
2022/06/02 08:29:12;;;;;;;8.82;4.20;;;;;;;26.36;43.49;94822.63;4165167;28;20472;-54
2022/06/02 08:31:52;;;;;;;9.05;4.88;;;;;;;26.26;43.87;94819.84;4163770;28;20061;-55
2022/06/02 08:33:56;;;;;;;9.70;4.32;;;;;;;26.06;44.72;94815.88;4159581;28;20529;-52
2022/06/02 08:36:13;;;;;;;10.18;4.32;;;;;;;26.19;45.34;94819.25;4171115;28;20417;-54
2022/06/02 08:38:27;;;;;;;9.70;4.88;;;;;;;26.25;45.60;94818.22;4173449;28;20444;-54
2022/06/02 08:41:28;;;;;;;7.35;3.83;;;;;;;26.40;44.64;94820.25;4174429;28;20048;-56
2022/06/02 08:43:50;;;;;;;10.18;4.47;;;;;;;26.49;44.77;94818.72;4163559;28;20049;-55
2022/06/02 08:46:03;;;;;;;8.82;4.63;;;;;;;26.62;43.90;94821.00;4166811;28;20054;-57
2022/06/02 08:48:12;;;;;;;11.27;4.32;;;;;;;26.64;43.63;94816.16;4160141;28;20057;-57
2022/06/02 08:50:20;;;;;;;9.38;4.03;;;;;;;26.51;43.17;94817.38;4170513;28;20060;-54
2022/06/02 08:52:48;;;;;;;11.73;4.43;;;;;;;26.39;43.47;94824.78;4163982;28;20493;-55
2022/06/02 08:55:19;;;;;;;9.40;4.20;;;;;;;26.07;43.99;94814.84;4161060;28;20449;-54
2022/06/02 08:58:06;;;;;;;8.50;3.90;;;;;;;26.17;44.11;94824.84;4164749;28;20053;-56
2022/06/02 09:00:14;;;;;;;7.90;3.55;;;;;;;26.41;43.92;94824.53;4175269;28;20068;-56
2022/06/02 09:02:44;;;;;;;6.85;3.88;;;;;;;26.44;42.53;94821.34;4165960;28;20054;-56
2022/06/02 09:05:43;;;;;;;6.10;3.65;;;;;;;26.63;41.44;94819.09;4163435;28;20122;-57
2022/06/02 09:08:03;;;;;;;14.35;4.05;;;;;;;26.76;40.83;94824.06;4159843;28;20569;-60
2022/06/02 09:10:19;;;;;;;4.50;3.20;;;;;;;26.88;40.75;94821.97;4156961;28;20114;-56
2022/06/02 09:12:43;;;;;;;6.90;3.20;;;;;;;26.70;40.46;94814.34;4163836;28;20445;-56
2022/06/02 09:14:51;;;;;;;7.50;3.17;;;;;;;26.53;39.88;94820.63;4170640;28;20102;-56
2022/06/02 09:16:59;;;;;;;6.20;3.20;;;;;;;26.62;40.14;94817.50;4160177;28;20049;-55
2022/06/02 09:19:33;;;;;;;5.82;3.28;;;;;;;26.67;39.45;94820.22;4158416;28;20049;-56
2022/06/02 09:22:02;;;;;;;12.30;3.47;;;;;;;26.72;38.74;94804.94;4157608;28;20145;-56
2022/06/02 09:24:22;;;;;;;13.15;4.47;;;;;;;26.76;38.41;94808.75;4167591;28;20045;-54
2022/06/02 09:26:36;;;;;;;8.10;3.22;;;;;;;26.95;37.61;94816.38;4162034;28;20053;-55
2022/06/02 09:28:54;;;;;;;;;;;;;;;27.15;37.27;94807.66;4164410;28;20194;-54
2022/06/02 09:31:16;;;;;;;8.40;3.65;;;;;;;27.13;38.06;94804.41;4172790;28;19924;-56
2022/06/02 09:33:43;;;;;;;10.27;4.13;;;;;;;26.99;39.01;94805.94;4175077;28;20044;-57
2022/06/02 09:36:11;;;;;;;8.73;4.05;;;;;;;27.08;38.63;94802.50;4176811;28;20106;-57
2022/06/02 09:38:41;;;;;;;6.95;3.63;;;;;;;27.36;38.18;94806.72;4161233;28;20493;-55
2022/06/02 09:41:04;;;;;;;6.78;3.72;;;;;;;27.55;36.94;94801.69;4161721;28;20130;-55
2022/06/02 09:43:17;;;;;;;6.95;3.50;;;;;;;27.78;36.98;94802.31;4170219;28;20495;-56
2022/06/02 09:45:24;;;;;;;12.73;3.03;;;;;;;27.87;35.01;94800.75;4169273;28;20049;-55
2022/06/02 09:47:32;;;;;;;7.93;3.10;;;;;;;27.97;34.28;94799.97;4175282;28;20057;-52
2022/06/02 09:49:40;;;;;;;10.45;2.78;;;;;;;27.90;32.41;94794.00;4170847;28;20110;-56
2022/06/02 09:52:01;;;;;;;8.85;2.80;;;;;;;28.05;33.32;94796.75;4159702;28;20115;-57
2022/06/02 09:54:22;;;;;;;6.82;3.13;;;;;;;28.25;33.39;94801.38;4160142;28;20057;-55
2022/06/02 09:57:00;;;;;;;6.10;3.05;;;;;;;28.44;33.85;94793.56;4164042;28;20138;-53
2022/06/02 09:59:14;;;;;;;11.40;3.63;;;;;;;28.58;34.83;94791.16;4172396;28;20451;-55
2022/06/02 10:01:44;;;;;;;8.18;3.28;;;;;;;28.71;34.03;94792.50;4173836;28;20084;-54
2022/06/02 10:03:57;;;;;;;19.73;3.60;;;;;;;28.67;33.46;94791.44;4172755;28;20052;-57
2022/06/02 10:06:44;;;;;;;9.43;3.28;;;;;;;28.16;33.04;94798.38;4173776;28;20265;-53
2022/06/02 10:08:52;;;;;;;8.85;3.15;;;;;;;28.05;33.60;94795.94;4157593;28;20057;-56
2022/06/02 10:11:11;;;;;;;7.10;2.97;;;;;;;27.84;32.77;94782.41;4159304;28;20115;-57
2022/06/02 10:13:26;;;;;;;9.43;2.75;;;;;;;27.82;32.55;94786.44;4158253;28;20057;-56
2022/06/02 10:15:40;;;;;;;8.50;2.30;;;;;;;28.10;32.52;94787.88;4156136;28;20049;-54
2022/06/02 10:17:56;;;;;;;6.03;3.20;;;;;;;28.37;32.43;94787.63;4159705;28;20144;-55
2022/06/02 10:20:07;;;;;;;8.38;2.90;;;;;;;28.41;31.81;94791.41;4166445;28;20061;-56
2022/06/02 10:22:30;;;;;;;7.38;2.70;;;;;;;28.17;30.49;94783.03;4157824;28;20045;-59
2022/06/02 10:24:53;;;;;;;7.80;2.25;;;;;;;28.14;29.50;94780.88;4169362;28;20567;-57
2022/06/02 10:27:27;;;;;;;10.10;3.00;;;;;;;28.45;29.11;94780.91;4176022;28;20045;-55
2022/06/02 10:29:56;;;;;;;7.38;2.53;;;;;;;28.72;29.93;94780.66;4174081;28;20057;-55
2022/06/02 10:32:16;;;;;;;8.23;2.30;;;;;;;28.84;28.19;94775.78;4175960;28;20045;-55
2022/06/02 10:34:44;;;;;;;9.10;2.40;;;;;;;29.07;28.69;94773.59;4166475;28;20052;-52
2022/06/02 10:37:00;;;;;;;9.80;2.83;;;;;;;29.09;27.18;94768.72;4156796;28;20168;-55
2022/06/02 10:39:16;;;;;;;11.55;2.78;;;;;;;29.25;26.56;94780.31;4157826;28;20163;-54
2022/06/02 10:41:36;;;;;;;8.63;2.47;;;;;;;29.36;26.54;94761.13;4163312;28;20060;-55
2022/06/02 10:44:25;;;;;;;6.05;1.80;;;;;;;29.49;26.35;94756.19;4163694;28;20041;-57
2022/06/02 10:47:12;;;;;;;5.28;2.13;;;;;;;29.07;25.75;94763.59;4167562;28;20377;-56
2022/06/02 10:49:33;;;;;;;7.88;2.28;;;;;;;29.29;26.64;94744.41;4159197;28;20060;-55
2022/06/02 10:52:11;;;;;;;13.25;2.55;;;;;;;29.28;27.26;94747.41;4168864;28;20076;-57
2022/06/02 10:54:35;;;;;;;6.32;2.10;;;;;;;29.20;26.94;94746.06;4172725;28;20049;-55
2022/06/02 10:56:44;;;;;;;6.28;2.45;;;;;;;29.23;27.32;94736.59;4159911;28;20478;-57
2022/06/02 10:58:54;;;;;;;11.07;2.58;;;;;;;29.44;27.63;94737.34;4161637;28;20053;-58
2022/06/02 11:01:05;;;;;;;5.00;2.47;;;;;;;29.67;27.64;94741.28;4170144;28;20410;-56